Terminal Aerodrome Forecast
Issued by NWS Lake Charles, LA

Current Version | Previous Version | Text Only | Print | Product List | Glossary On
Versions: 1 2 3 4 5 6 7 8 9 10 11 12 13 14 15
000
FTUS44 KLCH 011700
TAFAEX
TAF
KAEX 011727Z 0118/0218 10003KT 4SM BR VCTS OVC005CB
      TEMPO 0118/0122 2SM SHRA BR SCT005 OVC010
     FM012200 12006KT 4SM BR VCSH OVC007
     FM020100 10005KT 4SM BR VCSH OVC004
     FM020600 06003KT 1SM -RA BR OVC002=

USA.gov is the U.S. government's official web portal to all federal, state and local government web resources and services.